createdAt,value
2019-01-13T00:50:51.655Z,1005.16
2019-01-13T00:51:52.290Z,1005.16
2019-01-13T00:52:52.924Z,1005.15
2019-01-13T00:53:53.620Z,1005.14
2019-01-13T00:54:54.267Z,1005.14
2019-01-13T00:55:54.909Z,1005.14
2019-01-13T00:56:55.574Z,1005.12
2019-01-13T00:57:56.193Z,1005.15
2019-01-13T00:58:56.830Z,1005.13
2019-01-13T00:59:57.499Z,1005.14
2019-01-13T01:00:58.131Z,1005.08
2019-01-13T01:01:58.774Z,1005.10
2019-01-13T01:02:59.421Z,1005.07
2019-01-13T01:04:00.040Z,1005.03
2019-01-13T01:05:00.682Z,1004.99
2019-01-13T01:06:01.326Z,1004.98
2019-01-13T01:07:01.956Z,1004.99
2019-01-13T01:08:02.589Z,1005.03
2019-01-13T01:09:03.294Z,1005.01
2019-01-13T01:10:03.927Z,1005.02
2019-01-13T01:11:04.566Z,1005.03
2019-01-13T01:12:05.207Z,1005.04
2019-01-13T01:13:05.841Z,1004.99
2019-01-13T01:14:06.481Z,1004.94
2019-01-13T01:15:07.124Z,1005.00
2019-01-13T01:16:07.754Z,1004.92
2019-01-13T01:17:08.408Z,1004.91
2019-01-13T01:18:09.062Z,1004.98
2019-01-13T01:19:09.680Z,1004.94
2019-01-13T01:20:10.434Z,1004.95
2019-01-13T01:21:11.063Z,1004.91
2019-01-13T01:22:11.779Z,1004.90
2019-01-13T01:23:12.413Z,1004.80
2019-01-13T01:24:13.116Z,1004.82
2019-01-13T01:25:13.755Z,1004.83
2019-01-13T01:26:14.466Z,1004.87
2019-01-13T01:27:15.285Z,1004.85
2019-01-13T01:28:16.016Z,1004.75
2019-01-13T01:29:16.651Z,1004.76
2019-01-13T01:30:17.355Z,1004.70
2019-01-13T01:31:17.999Z,1004.70
2019-01-13T01:32:18.704Z,1004.70
2019-01-13T01:33:25.870Z,1004.77
2019-01-13T01:34:20.050Z,1004.79
2019-01-13T01:35:20.690Z,1004.73
2019-01-13T01:36:21.397Z,1004.86
2019-01-13T01:37:22.032Z,1004.76
2019-01-13T01:38:22.737Z,1004.76
2019-01-13T01:39:23.380Z,1004.72
2019-01-13T01:40:24.091Z,1004.72
2019-01-13T01:41:24.721Z,1004.67
2019-01-13T01:42:25.430Z,1004.74
2019-01-13T01:43:26.069Z,1004.75
2019-01-13T01:44:26.771Z,1004.75
2019-01-13T01:45:27.413Z,1004.77
2019-01-13T01:46:28.121Z,1004.72
2019-01-13T01:47:29.098Z,1004.77
2019-01-13T01:48:29.774Z,1004.78
2019-01-13T01:49:30.410Z,1004.73
2019-01-13T01:50:31.130Z,1004.75
2019-01-13T01:51:31.773Z,1004.71
2019-01-13T01:52:34.516Z,1004.72
2019-01-13T01:53:35.156Z,1004.73
2019-01-13T01:54:37.912Z,1004.77
2019-01-13T01:55:38.549Z,1004.76
2019-01-13T01:56:41.373Z,1004.77
2019-01-13T01:57:41.956Z,1004.69
2019-01-13T01:58:44.698Z,1004.65
2019-01-13T01:59:45.340Z,1004.55
2019-01-13T02:00:45.975Z,1004.55
2019-01-13T02:01:46.663Z,1004.50
2019-01-13T02:02:47.309Z,1004.48
2019-01-13T02:04:04.512Z,1004.48
2019-01-13T02:05:05.141Z,1004.45
2019-01-13T02:06:21.510Z,1004.45
2019-01-13T02:07:22.171Z,1004.41
2019-01-13T02:08:24.914Z,1004.43
2019-01-13T02:09:25.559Z,1004.41
2019-01-13T02:10:26.253Z,1004.39
2019-01-13T02:11:26.883Z,1004.29
2019-01-13T02:12:28.612Z,1004.26
2019-01-13T02:13:29.254Z,1004.27
2019-01-13T02:14:30.982Z,1004.27
2019-01-13T02:15:31.619Z,1004.33
2019-01-13T02:16:32.257Z,1004.30
2019-01-13T02:17:32.947Z,1004.26
2019-01-13T02:18:33.604Z,1004.28
2019-01-13T02:19:34.295Z,1004.29
2019-01-13T02:20:34.946Z,1004.18
2019-01-13T02:21:35.638Z,1004.18
2019-01-13T02:22:36.276Z,1004.17
2019-01-13T02:23:36.994Z,1004.14
2019-01-13T02:24:37.627Z,1004.20
2019-01-13T02:25:38.330Z,1004.13
2019-01-13T02:26:38.966Z,1004.09
2019-01-13T02:27:39.611Z,1004.04
2019-01-13T02:28:41.331Z,1004.03
2019-01-13T02:29:41.980Z,1004.03
2019-01-13T02:30:49.040Z,1004.09
2019-01-13T02:31:43.299Z,1004.05
2019-01-13T02:32:50.572Z,1004.08
2019-01-13T02:33:51.215Z,1004.15
2019-01-13T02:34:51.848Z,1004.16
2019-01-13T02:36:20.565Z,1004.14
2019-01-13T02:37:21.217Z,1004.12
2019-01-13T02:38:36.583Z,1004.11
2019-01-13T02:39:37.250Z,1004.10
2019-01-13T02:41:15.581Z,1004.19
2019-01-13T02:42:16.227Z,1004.18
2019-01-13T02:52:39.718Z,1004.29
2019-01-13T02:53:40.355Z,1004.27
2019-01-13T02:54:41.003Z,1004.28
2019-01-13T02:55:41.645Z,1004.33
2019-01-13T02:56:43.958Z,1004.38
2019-01-13T02:57:42.909Z,1004.38
2019-01-13T02:58:43.538Z,1004.38
2019-01-13T02:59:45.364Z,1004.36
2019-01-13T03:00:46.000Z,1004.37
2019-01-13T03:01:46.639Z,1004.39
2019-01-13T03:02:47.282Z,1004.40
2019-01-13T03:03:47.918Z,1004.38
2019-01-13T03:04:48.563Z,1004.34
2019-01-13T03:05:49.198Z,1004.35
2019-01-13T03:06:49.841Z,1004.27
2019-01-13T03:07:50.475Z,1004.26
2019-01-13T03:08:51.117Z,1004.33
2019-01-13T03:09:51.757Z,1004.35
2019-01-13T03:10:52.400Z,1004.31
2019-01-13T03:11:53.032Z,1004.23
2019-01-13T03:12:53.668Z,1004.25
2019-01-13T03:13:54.305Z,1004.20
2019-01-13T03:14:54.957Z,1004.15
2019-01-13T03:15:55.709Z,1004.11
2019-01-13T03:16:56.349Z,1004.16
2019-01-13T03:17:57.272Z,1004.11
2019-01-13T03:18:57.907Z,1004.15
2019-01-13T03:19:58.723Z,1004.15
2019-01-13T03:20:59.371Z,1004.07
2019-01-13T03:22:00.157Z,1004.03
2019-01-13T03:23:00.804Z,1004.03
2019-01-13T03:24:01.505Z,1003.99
2019-01-13T03:25:02.153Z,1003.98
2019-01-13T03:26:02.846Z,1004.02
2019-01-13T03:27:03.483Z,1004.07
2019-01-13T03:28:04.194Z,1003.95
2019-01-13T03:29:04.842Z,1003.90
2019-01-13T03:30:05.536Z,1003.84
2019-01-13T03:31:12.143Z,1003.80
2019-01-13T03:32:06.889Z,1003.82
2019-01-13T03:33:07.520Z,1003.82
2019-01-13T03:34:08.238Z,1003.81
2019-01-13T03:35:08.869Z,1003.75
2019-01-13T03:36:09.569Z,1003.72
2019-01-13T03:37:10.206Z,1003.67
2019-01-13T03:38:10.923Z,1003.66
2019-01-13T03:39:11.560Z,1003.64
2019-01-13T03:40:12.268Z,1003.64
2019-01-13T03:41:12.893Z,1003.60
2019-01-13T03:42:14.632Z,1003.63
2019-01-13T03:43:15.262Z,1003.60
2019-01-13T03:44:15.982Z,1003.57
2019-01-13T03:45:16.618Z,1003.50
2019-01-13T03:46:17.326Z,1003.53
2019-01-13T03:47:17.954Z,1003.44
2019-01-13T03:48:18.673Z,1003.46
2019-01-13T03:49:19.298Z,1003.46
2019-01-13T03:50:20.010Z,1003.51
2019-01-13T03:51:20.667Z,1003.52
2019-01-13T03:52:21.359Z,1003.43
2019-01-13T03:53:21.998Z,1003.43
2019-01-13T03:54:22.702Z,1003.36
2019-01-13T03:55:23.336Z,1003.30
2019-01-13T03:56:25.069Z,1003.22
2019-01-13T03:57:25.702Z,1003.19
2019-01-13T03:58:26.430Z,1003.20
2019-01-13T03:59:27.068Z,1003.13
2019-01-13T04:00:27.772Z,1003.20
2019-01-13T04:01:28.397Z,1003.16
2019-01-13T04:02:29.102Z,1003.16
2019-01-13T04:03:29.746Z,1003.19
2019-01-13T04:04:30.450Z,1003.18
2019-01-13T04:05:31.097Z,1003.22
2019-01-13T04:06:31.798Z,1003.25
2019-01-13T04:07:32.434Z,1003.24
2019-01-13T04:08:33.143Z,1003.21
2019-01-13T04:09:33.786Z,1003.23
2019-01-13T04:10:34.485Z,1003.25
2019-01-13T04:11:35.139Z,1003.29
2019-01-13T04:12:35.830Z,1003.18
2019-01-13T04:13:36.478Z,1003.15
2019-01-13T04:14:37.174Z,1003.11
2019-01-13T04:15:37.826Z,1003.08
2019-01-13T04:16:38.524Z,1003.07
2019-01-13T04:17:39.167Z,1002.99
2019-01-13T04:18:39.864Z,1002.95
2019-01-13T04:19:40.632Z,1002.95
2019-01-13T04:20:43.195Z,1002.86
2019-01-13T04:29:16.492Z,1002.66
2019-01-13T04:30:17.222Z,1002.63
2019-01-13T04:31:17.865Z,1002.61
2019-01-13T04:32:18.510Z,1002.57
2019-01-13T04:33:19.138Z,1002.51
2019-01-13T04:34:19.777Z,1002.53
2019-01-13T04:35:20.412Z,1002.48
2019-01-13T04:36:21.051Z,1002.49
2019-01-13T04:37:21.687Z,1002.36
2019-01-13T04:38:22.341Z,1002.39
2019-01-13T04:39:23.126Z,1002.39
2019-01-13T04:40:23.768Z,1002.38
2019-01-13T04:41:24.404Z,1002.32
2019-01-13T04:42:25.039Z,1002.30
2019-01-13T04:43:25.684Z,1002.29
2019-01-13T04:44:26.324Z,1002.31
2019-01-13T04:45:26.972Z,1002.29
2019-01-13T04:46:27.610Z,1002.26
2019-01-13T04:47:28.255Z,1002.23
2019-01-13T04:48:28.894Z,1002.23
2019-01-13T04:49:29.551Z,1002.21
2019-01-13T04:50:30.183Z,1002.15
2019-01-13T04:51:31.473Z,1002.19
2019-01-13T04:52:32.120Z,1002.11
2019-01-13T04:53:32.754Z,1002.11
2019-01-13T04:54:33.392Z,1002.04
2019-01-13T04:55:34.031Z,1002.02
2019-01-13T04:56:34.664Z,1001.97
2019-01-13T04:57:35.303Z,1001.95
2019-01-13T04:58:36.049Z,1001.91
2019-01-13T04:59:36.689Z,1001.94
2019-01-13T05:00:37.352Z,1002.00
2019-01-13T05:01:38.007Z,1002.03
2019-01-13T05:02:38.634Z,1002.08
2019-01-13T05:03:39.288Z,1002.02
2019-01-13T05:04:39.924Z,1002.01
2019-01-13T05:05:40.561Z,1002.05
2019-01-13T05:06:41.195Z,1001.99
2019-01-13T05:07:41.841Z,1002.04
2019-01-13T05:08:42.473Z,1002.02
2019-01-13T05:09:43.118Z,1002.00
2019-01-13T05:10:43.751Z,1001.97
2019-01-13T05:11:44.394Z,1001.94
2019-01-13T05:12:45.030Z,1001.94
2019-01-13T05:13:45.674Z,1001.89
2019-01-13T05:14:46.310Z,1001.90
2019-01-13T05:15:46.954Z,1001.86
2019-01-13T05:16:47.595Z,1001.90
2019-01-13T05:17:48.243Z,1001.87
2019-01-13T05:18:48.871Z,1001.85
2019-01-13T05:19:49.511Z,1001.80
2019-01-13T05:20:50.148Z,1001.77
2019-01-13T05:21:50.787Z,1001.75
2019-01-13T05:22:51.427Z,1001.78
2019-01-13T05:23:52.198Z,1001.74
2019-01-13T05:24:52.862Z,1001.75
2019-01-13T05:25:53.476Z,1001.72
2019-01-13T05:26:54.271Z,1001.74
2019-01-13T05:27:54.910Z,1001.72
2019-01-13T05:28:55.561Z,1001.73
2019-01-13T05:29:56.187Z,1001.72
2019-01-13T05:30:56.830Z,1001.72
2019-01-13T05:31:57.470Z,1001.77
2019-01-13T05:32:58.212Z,1001.71
2019-01-13T05:33:58.848Z,1001.66
2019-01-13T05:34:59.661Z,1001.66
2019-01-13T05:36:00.296Z,1001.62
2019-01-13T05:37:01.106Z,1001.56
2019-01-13T05:38:01.742Z,1001.59
2019-01-13T05:39:02.542Z,1001.56
2019-01-13T05:40:03.179Z,1001.58
2019-01-13T05:41:03.983Z,1001.62
2019-01-13T05:42:04.626Z,1001.56
2019-01-13T05:43:05.432Z,1001.53
2019-01-13T05:44:06.071Z,1001.52
2019-01-13T05:45:15.586Z,1001.49
2019-01-13T05:46:16.219Z,1001.53
2019-01-13T05:47:17.029Z,1001.60
2019-01-13T05:48:17.674Z,1001.64
2019-01-13T05:49:26.557Z,1001.68
2019-01-13T05:50:27.205Z,1001.66
2019-01-13T05:51:28.002Z,1001.65
2019-01-13T05:52:28.640Z,1001.55
2019-01-13T05:53:29.449Z,1001.50
2019-01-13T05:54:30.094Z,1001.47
2019-01-13T05:55:32.842Z,1001.51
2019-01-13T05:56:33.491Z,1001.45
2019-01-13T05:57:35.213Z,1001.49
2019-01-13T05:58:35.856Z,1001.48
2019-01-13T06:00:06.661Z,1001.48
2019-01-13T06:01:07.308Z,1001.51
2019-01-13T06:02:08.015Z,1001.49
2019-01-13T06:03:08.660Z,1001.48
2019-01-13T06:04:10.502Z,1001.49
2019-01-13T06:05:12.971Z,1001.36
2019-01-13T06:06:13.711Z,1001.39
2019-01-13T06:07:14.347Z,1001.34
2019-01-13T06:08:15.054Z,1001.30
2019-01-13T06:09:15.692Z,1001.29
2019-01-13T06:10:16.399Z,1001.26
2019-01-13T06:11:17.041Z,1001.29
2019-01-13T06:12:17.745Z,1001.21
2019-01-13T06:13:18.381Z,1001.25
2019-01-13T06:14:19.092Z,1001.18
2019-01-13T06:15:19.744Z,1001.11
2019-01-13T06:16:20.434Z,1001.13
2019-01-13T06:17:21.583Z,1001.10
2019-01-13T06:18:22.293Z,1001.07
2019-01-13T06:19:22.961Z,1001.01
2019-01-13T06:20:23.637Z,1001.05
2019-01-13T06:21:24.276Z,1000.99
2019-01-13T06:22:25.028Z,1000.98
2019-01-13T06:23:25.655Z,1000.94
2019-01-13T06:24:26.429Z,1000.91
2019-01-13T06:25:27.170Z,1000.94
2019-01-13T06:26:27.877Z,1000.91
2019-01-13T06:27:28.530Z,1000.86
2019-01-13T06:28:29.222Z,1000.81
2019-01-13T06:29:29.866Z,1000.89
2019-01-13T06:30:30.566Z,1000.75
2019-01-13T06:31:31.202Z,1000.76
2019-01-13T06:32:31.912Z,1000.73
2019-01-13T06:33:32.563Z,1000.71
2019-01-13T06:34:34.280Z,1000.69
2019-01-13T06:35:34.930Z,1000.67
2019-01-13T06:36:35.627Z,1000.68
2019-01-13T06:37:36.357Z,1000.66
2019-01-13T06:38:37.069Z,1000.64
2019-01-13T06:39:37.715Z,1000.60
2019-01-13T06:40:38.421Z,1000.61
2019-01-13T06:41:39.084Z,1000.64
2019-01-13T06:42:39.765Z,1000.57
2019-01-13T06:43:40.404Z,1000.56
2019-01-13T06:44:41.108Z,1000.62
2019-01-13T06:45:41.749Z,1000.58
2019-01-13T06:46:42.455Z,1000.57
2019-01-13T06:47:43.035Z,1000.49
2019-01-13T06:48:43.806Z,1000.48
2019-01-13T06:49:44.450Z,1000.45
2019-01-13T06:50:45.121Z,1000.41
2019-01-13T06:51:45.766Z,1000.40
2019-01-13T06:52:46.470Z,1000.38
2019-01-13T06:53:47.113Z,1000.38
2019-01-13T06:54:47.884Z,1000.38
2019-01-13T06:55:48.543Z,1000.37
2019-01-13T06:56:50.188Z,1000.37
2019-01-13T06:57:50.827Z,1000.43
2019-01-13T06:58:51.526Z,1000.41
2019-01-13T06:59:52.170Z,1000.34
2019-01-13T07:00:53.906Z,1000.29
2019-01-13T07:01:54.542Z,1000.31
2019-01-13T07:02:55.245Z,1000.30
2019-01-13T07:03:55.879Z,1000.30
2019-01-13T07:04:56.588Z,1000.31
2019-01-13T07:05:57.231Z,1000.25
2019-01-13T07:06:58.136Z,1000.29
2019-01-13T07:07:58.830Z,1000.27
2019-01-13T07:08:59.481Z,1000.30
2019-01-13T07:10:00.241Z,1000.23
2019-01-13T07:11:00.874Z,1000.17
2019-01-13T07:12:01.514Z,1000.18
2019-01-13T07:13:02.323Z,1000.20
2019-01-13T07:14:02.965Z,1000.19
2019-01-13T07:15:03.774Z,1000.15
2019-01-13T07:16:04.414Z,1000.18
2019-01-13T07:17:05.216Z,1000.18
2019-01-13T07:18:05.855Z,1000.15
2019-01-13T07:19:06.663Z,1000.14
2019-01-13T07:20:07.315Z,1000.18
2019-01-13T07:21:08.110Z,1000.09
2019-01-13T07:22:08.753Z,1000.10
2019-01-13T07:23:09.865Z,1000.07
2019-01-13T07:24:10.508Z,1000.06
2019-01-13T07:25:11.313Z,1000.06
2019-01-13T07:26:11.961Z,1000.03
2019-01-13T07:27:12.764Z,1000.03
2019-01-13T07:28:13.402Z,999.99
2019-01-13T07:29:14.210Z,999.92
2019-01-13T07:30:14.855Z,999.95
2019-01-13T07:31:15.656Z,999.92
2019-01-13T07:32:16.302Z,999.90
2019-01-13T07:33:17.105Z,999.85
2019-01-13T07:34:17.746Z,999.87
2019-01-13T07:35:18.553Z,999.91
2019-01-13T07:36:19.196Z,999.87
2019-01-13T07:37:20.004Z,999.81
2019-01-13T07:38:20.639Z,999.86
2019-01-13T07:39:21.341Z,999.92
2019-01-13T07:40:21.984Z,999.87
2019-01-13T07:41:22.791Z,999.79
2019-01-13T07:42:23.433Z,999.82
2019-01-13T07:43:24.135Z,999.83
2019-01-13T07:44:24.784Z,999.78
2019-01-13T07:45:26.626Z,999.75
2019-01-13T07:46:27.236Z,999.73
2019-01-13T07:47:35.651Z,999.80
2019-01-13T07:48:36.332Z,999.74
2019-01-13T07:49:38.697Z,999.63
2019-01-13T07:50:37.988Z,999.65
2019-01-13T07:51:38.649Z,999.68
2019-01-13T07:52:39.288Z,999.73
2019-01-13T07:53:39.993Z,999.65
2019-01-13T07:54:40.634Z,999.65
2019-01-13T07:55:41.270Z,999.60
2019-01-13T07:56:41.918Z,999.58
2019-01-13T07:57:42.577Z,999.67
2019-01-13T07:58:43.217Z,999.57
2019-01-13T07:59:43.885Z,999.51
2019-01-13T08:00:44.526Z,999.58
2019-01-13T08:01:46.247Z,999.54
2019-01-13T08:02:46.893Z,999.52
2019-01-13T08:03:56.612Z,999.49
2019-01-13T08:04:57.259Z,999.51
2019-01-13T08:06:04.515Z,999.52
2019-01-13T08:07:05.154Z,999.49
2019-01-13T08:08:05.861Z,999.50
2019-01-13T08:09:06.497Z,999.51
2019-01-13T08:10:16.109Z,999.57
2019-01-13T08:11:16.745Z,999.52
2019-01-13T08:12:17.499Z,999.52
2019-01-13T08:13:18.089Z,999.50
2019-01-13T08:14:18.733Z,999.59
2019-01-13T08:15:19.372Z,999.51
2019-01-13T08:16:20.015Z,999.43
2019-01-13T08:17:20.653Z,999.42
2019-01-13T08:18:21.285Z,999.42
2019-01-13T08:19:21.932Z,999.39
2019-01-13T08:20:22.576Z,999.44
2019-01-13T08:22:47.964Z,999.42
2019-01-13T08:23:48.646Z,999.47
2019-01-13T08:24:49.261Z,999.46
2019-01-13T08:25:49.954Z,999.40
2019-01-13T08:26:50.605Z,999.38
2019-01-13T08:27:51.353Z,999.38
2019-01-13T08:28:51.970Z,999.37
2019-01-13T08:29:53.676Z,999.31
2019-01-13T08:30:54.322Z,999.35
2019-01-13T08:31:55.009Z,999.32
2019-01-13T08:32:55.648Z,999.26
2019-01-13T08:34:03.229Z,999.32
2019-01-13T08:35:03.861Z,999.36
2019-01-13T08:36:05.597Z,999.36
2019-01-13T08:37:06.247Z,999.42
2019-01-13T08:38:07.963Z,999.35
2019-01-13T08:39:08.642Z,999.26
2019-01-13T08:40:09.306Z,999.24
2019-01-13T08:41:09.952Z,999.24
2019-01-13T08:42:17.246Z,999.21
2019-01-13T08:43:17.901Z,999.19
2019-01-13T08:44:25.198Z,999.21
2019-01-13T08:45:25.858Z,999.14
2019-01-13T08:46:28.594Z,999.12
2019-01-13T08:47:29.237Z,999.16
2019-01-13T08:48:29.891Z,999.17
2019-01-13T08:49:32.734Z,999.12
2019-01-13T08:50:33.387Z,999.10
2019-01-13T08:51:48.708Z,999.08
2019-01-13T08:52:49.491Z,999.06
2019-01-13T08:53:52.099Z,999.11
2019-01-13T08:54:52.737Z,999.04
2019-01-13T08:56:01.253Z,998.99
2019-01-13T08:57:01.907Z,999.04
2019-01-13T08:58:04.719Z,999.02
2019-01-13T08:59:05.361Z,999.02
2019-01-13T09:00:06.070Z,999.02
2019-01-13T09:01:06.709Z,998.99
2019-01-13T09:02:08.548Z,998.95
2019-01-13T09:03:09.192Z,998.90
2019-01-13T09:04:09.881Z,998.95
2019-01-13T09:05:10.557Z,998.87
2019-01-13T09:06:12.274Z,998.79
2019-01-13T09:07:12.906Z,998.73
2019-01-13T09:08:13.570Z,998.72
2019-01-13T09:09:14.210Z,998.77
2019-01-13T09:10:14.935Z,998.78
2019-01-13T09:11:15.587Z,998.78
2019-01-13T09:12:16.228Z,998.78
2019-01-13T09:13:16.869Z,998.77
2019-01-13T09:14:17.517Z,998.67
2019-01-13T09:15:18.161Z,998.67
2019-01-13T09:16:18.890Z,998.71
2019-01-13T09:17:19.562Z,998.76
2019-01-13T09:18:20.190Z,998.76
2019-01-13T09:19:20.838Z,998.67
2019-01-13T09:20:21.496Z,998.73
2019-01-13T09:21:22.655Z,998.77
2019-01-13T09:22:23.282Z,998.74
2019-01-13T09:23:23.955Z,998.73
2019-01-13T09:24:24.539Z,998.73
2019-01-13T09:25:25.199Z,998.68
2019-01-13T09:26:25.840Z,998.74
2019-01-13T09:27:26.523Z,998.65
2019-01-13T09:28:27.169Z,998.59
2019-01-13T09:29:27.802Z,998.56
2019-01-13T09:30:28.436Z,998.55
2019-01-13T09:31:30.116Z,998.54
2019-01-13T09:32:30.764Z,998.46
2019-01-13T09:33:31.391Z,998.45
2019-01-13T09:34:32.042Z,998.45
2019-01-13T09:35:32.767Z,998.42
2019-01-13T09:36:33.420Z,998.33
2019-01-13T09:37:40.669Z,998.31
2019-01-13T09:38:41.311Z,998.34
2019-01-13T09:39:42.015Z,998.36
2019-01-13T09:40:42.676Z,998.36
2019-01-13T09:41:44.426Z,998.37
2019-01-13T09:42:45.019Z,998.37
2019-01-13T09:43:47.775Z,998.31
2019-01-13T09:44:48.410Z,998.26
2019-01-13T09:45:51.168Z,998.33
2019-01-13T09:46:51.829Z,998.38
2019-01-13T09:47:54.560Z,998.32
2019-01-13T09:48:55.199Z,998.32
2019-01-13T09:49:56.927Z,998.36
2019-01-13T09:50:57.567Z,998.27
2019-01-13T09:52:19.231Z,998.37
2019-01-13T09:53:19.870Z,998.37
2019-01-13T09:54:35.262Z,998.33
2019-01-13T09:55:35.892Z,998.37
2019-01-13T09:56:37.684Z,998.38
2019-01-13T09:57:38.271Z,998.33
2019-01-13T09:58:39.009Z,998.28
2019-01-13T09:59:39.624Z,998.23
2019-01-13T10:00:49.247Z,998.29
2019-01-13T10:01:49.867Z,998.34
2019-01-13T10:02:50.611Z,998.36
2019-01-13T10:03:51.226Z,998.36
2019-01-13T10:04:51.849Z,998.36
2019-01-13T10:05:52.525Z,998.35
2019-01-13T10:06:53.135Z,998.33
2019-01-13T10:07:53.821Z,998.25
2019-01-13T10:08:54.431Z,998.35
2019-01-13T10:09:55.075Z,998.38
2019-01-13T10:10:55.823Z,998.30
2019-01-13T10:11:56.416Z,998.23
2019-01-13T10:12:57.053Z,998.30
2019-01-13T10:13:57.748Z,998.18
2019-01-13T10:14:58.368Z,998.22
2019-01-13T10:15:59.072Z,998.22
2019-01-13T10:16:59.713Z,998.21
2019-01-13T10:18:00.343Z,998.25
2019-01-13T10:19:00.983Z,998.19
2019-01-13T10:20:01.624Z,998.14
2019-01-13T10:21:02.374Z,998.13
2019-01-13T10:22:03.021Z,998.10
2019-01-13T10:23:03.663Z,998.13
2019-01-13T10:24:04.338Z,998.06
2019-01-13T10:25:04.990Z,998.05
2019-01-13T10:26:05.704Z,998.00
2019-01-13T10:27:06.325Z,998.02
2019-01-13T10:28:07.175Z,998.02
2019-01-13T10:29:07.885Z,997.95
2019-01-13T10:30:08.519Z,997.96
2019-01-13T10:31:09.206Z,997.91
2019-01-13T10:32:09.847Z,997.96
2019-01-13T10:33:10.501Z,997.87
2019-01-13T10:34:11.132Z,997.84
2019-01-13T10:35:11.815Z,997.84
2019-01-13T10:36:12.428Z,997.84
2019-01-13T10:37:13.096Z,997.84
2019-01-13T10:38:13.736Z,997.91
2019-01-13T10:39:14.492Z,997.92
2019-01-13T10:40:15.085Z,997.79
2019-01-13T10:41:15.767Z,997.79
2019-01-13T10:42:16.400Z,997.83
2019-01-13T10:43:17.134Z,997.71
2019-01-13T10:44:17.768Z,997.75
2019-01-13T10:45:18.432Z,997.70
2019-01-13T10:46:19.078Z,997.67
2019-01-13T10:47:19.701Z,997.71
2019-01-13T10:48:20.431Z,997.65
2019-01-13T10:49:20.987Z,997.63
2019-01-13T10:50:21.788Z,997.57
2019-01-13T10:51:22.427Z,997.69
2019-01-13T10:52:23.096Z,997.67
2019-01-13T10:53:23.736Z,997.57
2019-01-13T10:54:24.363Z,997.53
2019-01-13T10:55:24.994Z,997.55
2019-01-13T10:56:25.665Z,997.52
2019-01-13T10:57:26.329Z,997.48
2019-01-13T10:58:26.968Z,997.41
2019-01-13T10:59:27.632Z,997.43
2019-01-13T11:00:28.262Z,997.44
2019-01-13T11:01:28.897Z,997.36
2019-01-13T11:02:29.537Z,997.41
2019-01-13T11:03:30.185Z,997.44
2019-01-13T11:04:30.832Z,997.51
2019-01-13T11:05:31.491Z,997.47
2019-01-13T11:06:32.222Z,997.41
2019-01-13T11:07:32.867Z,997.43
2019-01-13T11:08:33.663Z,997.39
2019-01-13T11:09:34.311Z,997.37
2019-01-13T11:10:35.011Z,997.33
2019-01-13T11:11:35.657Z,997.33
2019-01-13T11:12:36.311Z,997.18
2019-01-13T11:13:36.956Z,997.23
2019-01-13T11:14:37.592Z,997.24
2019-01-13T11:15:38.227Z,997.19
2019-01-13T11:16:38.879Z,997.28
2019-01-13T11:17:39.516Z,997.23
2019-01-13T11:18:40.153Z,997.23
2019-01-13T11:19:40.789Z,997.28
2019-01-13T11:20:41.657Z,997.24
2019-01-13T11:21:42.266Z,997.14
2019-01-13T11:22:42.920Z,997.17
2019-01-13T11:23:43.773Z,997.09
2019-01-13T11:24:44.428Z,997.19
2019-01-13T11:25:45.083Z,997.14
2019-01-13T11:26:45.734Z,997.09
2019-01-13T11:27:47.436Z,997.06
2019-01-13T11:28:48.072Z,997.13
2019-01-13T11:29:48.718Z,997.12
2019-01-13T11:30:49.370Z,997.07
2019-01-13T11:31:49.999Z,997.07
2019-01-13T11:32:50.734Z,996.99
2019-01-13T11:33:51.383Z,996.98
2019-01-13T11:34:52.039Z,996.93
2019-01-13T11:35:52.679Z,996.88
2019-01-13T11:36:53.343Z,996.95
2019-01-13T11:37:53.965Z,996.88
2019-01-13T11:38:54.645Z,996.86
2019-01-13T11:39:55.262Z,996.83
2019-01-13T11:40:56.003Z,996.81
2019-01-13T11:41:56.640Z,996.83
2019-01-13T11:42:57.337Z,996.83
2019-01-13T11:43:58.019Z,996.73
2019-01-13T11:44:59.776Z,996.64
2019-01-13T11:46:00.352Z,996.61
2019-01-13T11:47:01.055Z,996.52
2019-01-13T11:48:01.692Z,996.52
2019-01-13T11:49:03.421Z,996.52
2019-01-13T11:50:04.093Z,996.57
2019-01-13T11:51:04.778Z,996.51
2019-01-13T11:52:05.403Z,996.50
2019-01-13T11:53:06.057Z,996.48
2019-01-13T11:54:06.711Z,996.48
2019-01-13T11:55:07.338Z,996.53
2019-01-13T11:56:07.997Z,996.46
2019-01-13T11:57:08.718Z,996.42
2019-01-13T11:58:09.332Z,996.40
2019-01-13T11:59:10.009Z,996.36
2019-01-13T12:00:10.665Z,996.42
2019-01-13T12:01:11.301Z,996.32
2019-01-13T12:02:12.014Z,996.32
2019-01-13T12:03:16.750Z,996.36
2019-01-13T12:04:13.351Z,996.39
2019-01-13T12:05:13.997Z,996.25
2019-01-13T12:06:14.752Z,996.40
2019-01-13T12:07:15.361Z,996.31
2019-01-13T12:08:16.036Z,996.39
2019-01-13T12:09:16.641Z,996.29
2019-01-13T12:10:17.278Z,996.30
2019-01-13T12:11:17.906Z,996.28
2019-01-13T12:12:18.574Z,996.31
2019-01-13T12:13:19.272Z,996.24
2019-01-13T12:14:19.893Z,996.27
2019-01-13T12:15:20.601Z,996.27
2019-01-13T12:16:21.260Z,996.20
2019-01-13T12:17:21.949Z,996.21
2019-01-13T12:18:22.602Z,996.17
2019-01-13T12:19:23.286Z,996.18
2019-01-13T12:20:23.943Z,996.14
2019-01-13T12:21:24.801Z,996.04
2019-01-13T12:22:25.456Z,996.08
2019-01-13T12:23:26.182Z,996.06
2019-01-13T12:24:26.836Z,996.11
2019-01-13T12:25:27.546Z,996.09
2019-01-13T12:26:28.169Z,996.01
2019-01-13T12:27:28.871Z,996.03
2019-01-13T12:28:29.547Z,996.05
2019-01-13T12:29:30.882Z,995.98
2019-01-13T12:30:30.877Z,996.04
2019-01-13T12:31:32.842Z,996.04
2019-01-13T12:32:33.289Z,995.99
2019-01-13T12:33:33.940Z,996.00
2019-01-13T12:34:34.591Z,996.02
2019-01-13T12:35:35.364Z,995.97
2019-01-13T12:36:35.929Z,996.04
2019-01-13T12:37:36.685Z,996.10
2019-01-13T12:38:37.296Z,996.05
2019-01-13T12:39:37.957Z,996.02
2019-01-13T12:40:38.627Z,996.09
2019-01-13T12:41:39.311Z,995.89
2019-01-13T12:42:39.985Z,995.91
2019-01-13T12:43:40.674Z,995.97
2019-01-13T12:44:41.335Z,995.94
2019-01-13T12:45:42.346Z,995.92
2019-01-13T12:46:43.024Z,995.92
2019-01-13T12:47:43.672Z,995.78
2019-01-13T12:48:44.394Z,995.77
2019-01-13T12:49:45.026Z,995.78
2019-01-13T12:50:46.784Z,995.74
2019-01-13T12:51:47.403Z,995.70
2019-01-13T12:52:48.652Z,995.67
2019-01-13T12:53:48.740Z,995.67
2019-01-13T12:54:49.461Z,995.57
2019-01-13T12:55:50.102Z,995.53
2019-01-13T12:56:50.800Z,995.51
2019-01-13T12:57:51.436Z,995.53
2019-01-13T12:58:52.147Z,995.43
2019-01-13T12:59:52.788Z,995.39
2019-01-13T13:00:54.542Z,995.36
2019-01-13T13:01:55.245Z,995.27
2019-01-13T13:02:57.478Z,995.29
2019-01-13T13:03:56.532Z,995.21
2019-01-13T13:04:57.957Z,995.16
2019-01-13T13:05:57.822Z,995.15
2019-01-13T13:06:58.462Z,995.08
2019-01-13T13:07:59.255Z,995.08
2019-01-13T13:09:01.672Z,995.14
2019-01-13T13:10:03.345Z,995.11
2019-01-13T13:11:04.005Z,995.11
2019-01-13T13:12:04.655Z,995.06
2019-01-13T13:13:05.299Z,995.13
2019-01-13T13:14:05.925Z,995.13
2019-01-13T13:15:06.573Z,995.06
2019-01-13T13:16:07.278Z,995.07
2019-01-13T13:17:07.917Z,994.99
2019-01-13T13:18:08.559Z,994.96
2019-01-13T13:19:09.216Z,995.01
2019-01-13T13:20:16.756Z,995.01
2019-01-13T13:21:17.372Z,995.03
2019-01-13T13:22:18.015Z,994.87
2019-01-13T13:23:18.688Z,994.81
2019-01-13T13:24:19.289Z,994.81
2019-01-13T13:25:20.031Z,994.84
2019-01-13T13:26:20.685Z,994.72
2019-01-13T13:27:21.326Z,994.83
2019-01-13T13:28:21.979Z,994.87
2019-01-13T13:29:22.602Z,994.85
2019-01-13T13:30:23.275Z,994.79
2019-01-13T13:31:23.900Z,994.73
2019-01-13T13:32:24.542Z,994.64
2019-01-13T13:33:25.221Z,994.69
2019-01-13T13:34:25.912Z,994.75
2019-01-13T13:35:26.562Z,994.81
2019-01-13T13:36:27.210Z,994.90
2019-01-13T13:37:28.955Z,994.93
2019-01-13T13:38:29.587Z,994.88
2019-01-13T13:39:30.247Z,994.82